createdAt,value
2023-01-13T00:01:56.245Z,0.60
2023-01-13T00:04:43.765Z,0.60
2023-01-13T00:07:31.861Z,0.90
2023-01-13T00:10:19.487Z,0.50
2023-01-13T00:13:07.759Z,0.77
2023-01-13T00:16:03.163Z,0.70
2023-01-13T00:18:51.902Z,0.73
2023-01-13T00:21:39.416Z,0.80
2023-01-13T00:24:27.737Z,0.63
2023-01-13T00:27:15.256Z,0.70
2023-01-13T00:30:03.261Z,0.73
2023-01-13T00:32:50.820Z,0.70
2023-01-13T00:35:38.860Z,0.53
2023-01-13T00:38:27.010Z,0.60
2023-01-13T00:41:15.909Z,0.60
2023-01-13T00:44:03.851Z,0.50
2023-01-13T00:46:51.479Z,0.70
2023-01-13T00:49:39.578Z,0.70
2023-01-13T00:52:27.344Z,0.60
2023-01-13T00:55:15.432Z,0.60
2023-01-13T00:58:06.243Z,0.70
2023-01-13T01:00:54.349Z,0.70
2023-01-13T01:03:41.957Z,0.60
2023-01-13T01:06:29.552Z,0.70
2023-01-13T01:09:18.368Z,0.60
2023-01-13T01:12:06.270Z,0.80
2023-01-13T01:14:54.210Z,0.50
2023-01-13T01:17:41.707Z,0.80
2023-01-13T01:20:29.238Z,0.53
2023-01-13T01:23:17.118Z,0.80
2023-01-13T01:26:05.980Z,0.50
2023-01-13T01:28:53.581Z,0.60
2023-01-13T01:31:41.605Z,0.50
2023-01-13T01:34:29.057Z,0.57
2023-01-13T01:37:17.025Z,0.60
2023-01-13T01:40:04.599Z,0.60
2023-01-13T01:43:11.228Z,0.60
2023-01-13T01:45:58.755Z,0.70
2023-01-13T01:48:46.901Z,0.60
2023-01-13T01:51:37.565Z,0.70
2023-01-13T01:54:27.700Z,0.60
2023-01-13T01:57:17.676Z,0.73
2023-01-13T02:00:06.298Z,0.67
2023-01-13T02:02:53.840Z,0.50
2023-01-13T02:05:42.134Z,0.50
2023-01-13T02:08:30.428Z,0.60
2023-01-13T02:11:50.322Z,0.53
2023-01-13T02:14:39.612Z,0.60
2023-01-13T02:17:47.980Z,0.50
2023-01-13T02:20:54.203Z,0.60
2023-01-13T02:24:34.693Z,0.60
2023-01-13T02:27:33.870Z,0.50
2023-01-13T02:30:56.795Z,0.50
2023-01-13T02:33:47.101Z,0.50
2023-01-13T02:36:35.100Z,0.50
2023-01-13T02:39:37.286Z,0.50
2023-01-13T02:42:46.713Z,0.60
2023-01-13T02:45:41.237Z,0.50
2023-01-13T02:48:30.469Z,0.47
2023-01-13T02:51:20.049Z,0.60
2023-01-13T02:54:09.758Z,0.40
2023-01-13T02:56:59.163Z,0.40
2023-01-13T02:59:47.344Z,0.50
2023-01-13T03:02:35.477Z,0.57
2023-01-13T03:05:23.360Z,0.70
2023-01-13T03:08:23.607Z,0.50
2023-01-13T03:11:12.831Z,0.40
2023-01-13T03:14:15.952Z,0.50
2023-01-13T03:17:13.540Z,0.40
2023-01-13T03:20:07.743Z,0.60
2023-01-13T03:23:03.971Z,0.67
2023-01-13T03:26:02.931Z,0.50
2023-01-13T03:28:53.241Z,0.50
2023-01-13T03:31:44.431Z,0.47
2023-01-13T03:34:34.507Z,0.50
2023-01-13T03:37:25.026Z,0.60
2023-01-13T03:40:15.626Z,0.40
2023-01-13T03:43:30.656Z,0.50
2023-01-13T03:46:24.552Z,0.40
2023-01-13T03:49:14.851Z,0.40
2023-01-13T03:52:04.678Z,0.40
2023-01-13T03:54:55.364Z,0.30
2023-01-13T03:57:50.499Z,0.50
2023-01-13T04:00:41.801Z,0.40
2023-01-13T04:03:32.851Z,0.50
2023-01-13T04:06:38.728Z,0.33
2023-01-13T04:09:42.528Z,0.40
2023-01-13T04:12:52.907Z,0.53
2023-01-13T04:15:45.805Z,0.47
2023-01-13T04:18:33.472Z,0.50
2023-01-13T04:21:20.912Z,0.40
2023-01-13T04:24:09.457Z,0.60
2023-01-13T04:26:57.350Z,0.40
2023-01-13T04:29:45.245Z,0.60
2023-01-13T04:32:32.642Z,0.67
2023-01-13T04:35:20.470Z,0.60
2023-01-13T04:38:09.420Z,0.67
2023-01-13T04:40:57.194Z,0.60
2023-01-13T04:43:44.598Z,0.50
2023-01-13T04:46:32.443Z,0.50
2023-01-13T04:49:19.917Z,0.40
2023-01-13T04:52:07.770Z,0.57
2023-01-13T04:54:55.729Z,0.80
2023-01-13T04:57:43.235Z,0.50
2023-01-13T05:00:31.264Z,0.47
2023-01-13T05:03:18.822Z,0.47
2023-01-13T05:06:06.661Z,0.40
2023-01-13T05:08:54.114Z,0.60
2023-01-13T05:12:01.713Z,0.70
2023-01-13T05:15:08.437Z,0.60
2023-01-13T05:17:55.857Z,0.70
2023-01-13T05:20:43.279Z,0.80
2023-01-13T05:23:49.691Z,0.57
2023-01-13T05:26:37.083Z,0.50
2023-01-13T05:29:24.981Z,0.50
2023-01-13T05:32:12.932Z,0.50
2023-01-13T05:35:00.388Z,0.50
2023-01-13T05:37:48.276Z,0.50
2023-01-13T05:40:54.973Z,0.60
2023-01-13T05:43:42.271Z,0.60
2023-01-13T05:46:30.073Z,0.40
2023-01-13T05:49:17.468Z,0.70
2023-01-13T05:52:04.723Z,0.60
2023-01-13T05:54:52.077Z,0.60
2023-01-13T05:57:39.843Z,0.53
2023-01-13T06:00:27.065Z,0.60
2023-01-13T06:03:16.464Z,0.50
2023-01-13T06:06:04.577Z,0.60
2023-01-13T06:08:51.969Z,0.60
2023-01-13T06:11:39.844Z,0.70
2023-01-13T06:14:39.934Z,0.60
2023-01-13T06:17:27.732Z,0.63
2023-01-13T06:20:15.589Z,0.50
2023-01-13T06:23:03.353Z,0.70
2023-01-13T06:26:00.439Z,0.60
2023-01-13T06:28:50.041Z,0.50
2023-01-13T06:31:39.344Z,0.60
2023-01-13T06:34:26.790Z,0.40
2023-01-13T06:37:16.131Z,0.60
2023-01-13T06:40:04.418Z,0.53
2023-01-13T06:43:13.271Z,0.60
2023-01-13T06:46:02.842Z,0.63
2023-01-13T06:48:50.770Z,0.53
2023-01-13T06:51:38.247Z,0.50
2023-01-13T06:54:27.718Z,0.60
2023-01-13T06:57:15.184Z,0.60
2023-01-13T07:00:02.912Z,0.80
2023-01-13T07:02:50.228Z,0.50
2023-01-13T07:05:38.300Z,0.63
2023-01-13T07:08:26.058Z,0.63
2023-01-13T07:11:14.174Z,0.60
2023-01-13T07:14:20.555Z,0.60
2023-01-13T07:17:07.807Z,0.90
2023-01-13T07:19:55.490Z,0.70
2023-01-13T07:22:42.995Z,0.80
2023-01-13T07:25:32.404Z,0.53
2023-01-13T07:28:19.893Z,0.60
2023-01-13T07:31:14.401Z,0.63
2023-01-13T07:34:03.187Z,0.60
2023-01-13T07:36:50.406Z,0.50
2023-01-13T07:39:38.270Z,0.53
2023-01-13T07:42:44.037Z,0.80
2023-01-13T07:45:31.935Z,0.50
2023-01-13T07:48:19.148Z,0.87
2023-01-13T07:51:08.586Z,0.53
2023-01-13T07:53:56.491Z,0.80
2023-01-13T07:56:44.420Z,0.80
2023-01-13T07:59:31.673Z,0.80
2023-01-13T08:02:19.748Z,0.70
2023-01-13T08:05:07.512Z,0.80
2023-01-13T08:07:55.251Z,0.70
2023-01-13T08:10:42.536Z,0.70
2023-01-13T08:13:30.427Z,0.70
2023-01-13T08:16:17.913Z,0.53
2023-01-13T08:19:05.653Z,0.80
2023-01-13T08:21:53.011Z,0.70
2023-01-13T08:24:40.900Z,0.70
2023-01-13T08:27:28.389Z,0.70
2023-01-13T08:30:16.463Z,0.60
2023-01-13T08:33:07.729Z,0.87
2023-01-13T08:35:55.569Z,0.60
2023-01-13T08:38:43.063Z,0.70
2023-01-13T08:41:49.557Z,0.67
2023-01-13T08:44:37.448Z,0.80
2023-01-13T08:47:25.603Z,0.80
2023-01-13T08:50:13.793Z,0.83
2023-01-13T08:53:01.821Z,0.60
2023-01-13T08:55:49.110Z,0.63
2023-01-13T08:58:36.941Z,0.50
2023-01-13T09:01:24.829Z,0.60
2023-01-13T09:04:20.565Z,0.50
2023-01-13T09:07:08.022Z,0.67
2023-01-13T09:09:57.359Z,0.60
2023-01-13T09:13:03.910Z,0.60
2023-01-13T09:15:52.506Z,0.60
2023-01-13T09:18:40.374Z,0.43
2023-01-13T09:21:27.891Z,0.70
2023-01-13T09:24:15.791Z,0.60
2023-01-13T09:27:03.022Z,0.70
2023-01-13T09:29:51.277Z,0.53
2023-01-13T09:32:38.589Z,0.50
2023-01-13T09:35:26.273Z,0.60
2023-01-13T09:38:13.831Z,0.70
2023-01-13T09:41:01.489Z,0.50
2023-01-13T09:43:55.936Z,0.67
2023-01-13T09:46:47.580Z,0.70
2023-01-13T09:49:37.766Z,0.60
2023-01-13T09:52:27.067Z,0.60
2023-01-13T09:55:18.140Z,0.70
2023-01-13T09:58:18.639Z,0.50
2023-01-13T10:01:09.672Z,0.50
2023-01-13T10:03:57.109Z,0.50
2023-01-13T10:06:48.349Z,0.57
2023-01-13T10:09:51.798Z,0.70
2023-01-13T10:12:57.997Z,0.80
2023-01-13T10:16:03.325Z,0.70
2023-01-13T10:19:03.469Z,0.63
2023-01-13T10:22:10.223Z,0.73
2023-01-13T10:25:18.882Z,0.60
2023-01-13T10:28:10.361Z,0.53
2023-01-13T10:30:59.072Z,0.50
2023-01-13T10:33:46.448Z,0.60
2023-01-13T10:36:34.704Z,0.40
2023-01-13T10:39:22.131Z,0.60
2023-01-13T10:42:14.375Z,0.50
2023-01-13T10:45:03.572Z,0.50
2023-01-13T10:48:06.453Z,0.60
2023-01-13T10:50:53.902Z,0.50
2023-01-13T10:53:47.942Z,0.60
2023-01-13T10:56:35.848Z,1.03
2023-01-13T10:59:24.590Z,0.57
2023-01-13T11:02:26.310Z,0.67
2023-01-13T11:05:25.261Z,0.40
2023-01-13T11:08:20.824Z,0.60
2023-01-13T11:11:44.431Z,0.60
2023-01-13T11:14:40.556Z,0.50
2023-01-13T11:17:39.891Z,0.77
2023-01-13T11:20:41.726Z,0.60
2023-01-13T11:23:41.814Z,0.40
2023-01-13T11:26:38.042Z,0.67
2023-01-13T11:29:28.619Z,1.03
2023-01-13T11:32:19.526Z,0.60
2023-01-13T11:35:16.439Z,0.50
2023-01-13T11:38:13.017Z,0.50
2023-01-13T11:41:23.824Z,0.50
2023-01-13T11:44:20.950Z,0.40
2023-01-13T11:47:10.089Z,0.50
2023-01-13T11:49:57.988Z,0.60
2023-01-13T11:52:55.960Z,0.50
2023-01-13T11:55:43.365Z,0.40
2023-01-13T11:58:49.636Z,0.50
2023-01-13T12:01:45.920Z,0.57
2023-01-13T12:04:59.307Z,0.60
2023-01-13T12:07:49.639Z,0.40
2023-01-13T12:10:55.764Z,0.60
2023-01-13T12:14:09.858Z,0.70
2023-01-13T12:16:59.224Z,0.63
2023-01-13T12:19:50.874Z,0.67
2023-01-13T12:22:38.289Z,0.50
2023-01-13T12:25:30.726Z,0.57
2023-01-13T12:28:21.298Z,0.50
2023-01-13T12:31:10.011Z,0.70
2023-01-13T12:33:57.349Z,0.50
2023-01-13T12:36:51.010Z,0.47
2023-01-13T12:39:57.092Z,0.50
2023-01-13T12:43:22.927Z,0.50
2023-01-13T12:46:19.306Z,0.60
2023-01-13T12:49:07.899Z,0.97
2023-01-13T12:51:55.121Z,0.80
2023-01-13T12:54:45.766Z,0.40
2023-01-13T12:57:34.382Z,0.50
2023-01-13T13:00:22.356Z,0.50
2023-01-13T13:03:12.641Z,0.50
2023-01-13T13:06:09.640Z,0.60
2023-01-13T13:09:03.128Z,0.50
2023-01-13T13:12:03.692Z,0.60
2023-01-13T13:14:51.007Z,0.70
2023-01-13T13:17:39.808Z,0.60
2023-01-13T13:20:45.996Z,0.87
2023-01-13T13:23:52.513Z,0.63
2023-01-13T13:26:46.063Z,0.50
2023-01-13T13:29:46.593Z,0.60
2023-01-13T13:32:34.440Z,0.70
2023-01-13T13:35:21.685Z,0.47
2023-01-13T13:38:27.510Z,0.60
2023-01-13T13:41:37.202Z,0.63
2023-01-13T13:44:43.972Z,0.63
2023-01-13T13:47:38.778Z,0.60
2023-01-13T13:50:26.678Z,0.47
2023-01-13T13:53:14.558Z,0.50
2023-01-13T13:56:04.784Z,0.40
2023-01-13T13:58:52.852Z,0.50
2023-01-13T14:01:41.471Z,0.50
2023-01-13T14:04:31.528Z,0.60
2023-01-13T14:07:23.171Z,0.80
2023-01-13T14:10:19.139Z,0.53
2023-01-13T14:13:19.955Z,0.93
2023-01-13T14:16:07.996Z,0.90
2023-01-13T14:18:55.883Z,0.40
2023-01-13T14:21:43.157Z,0.70
2023-01-13T14:24:31.445Z,0.40
2023-01-13T14:27:19.550Z,0.60
2023-01-13T14:30:08.285Z,0.50
2023-01-13T14:32:56.591Z,0.60
2023-01-13T14:36:03.325Z,0.70
2023-01-13T14:39:11.511Z,0.50
2023-01-13T14:41:58.898Z,0.60
2023-01-13T14:44:50.400Z,1.73
2023-01-13T14:47:39.474Z,0.70
2023-01-13T14:50:31.899Z,0.67
2023-01-13T14:53:31.376Z,0.70
2023-01-13T14:56:37.134Z,0.60
2023-01-13T14:59:35.002Z,0.60
2023-01-13T15:02:28.410Z,0.60
2023-01-13T15:05:24.527Z,0.63
2023-01-13T15:08:12.184Z,0.60
2023-01-13T15:11:01.551Z,0.60
2023-01-13T15:13:53.046Z,0.70
2023-01-13T15:16:40.641Z,0.57
2023-01-13T15:19:28.052Z,0.60
2023-01-13T15:22:15.246Z,0.67
2023-01-13T15:25:02.538Z,0.63
2023-01-13T15:27:51.661Z,1.37
2023-01-13T15:30:38.861Z,0.73
2023-01-13T15:33:26.258Z,1.00
2023-01-13T15:36:24.905Z,0.90
2023-01-13T15:39:13.732Z,1.40
2023-01-13T15:42:20.248Z,1.07
2023-01-13T15:45:26.312Z,0.83
2023-01-13T15:48:13.789Z,0.80
2023-01-13T15:51:01.481Z,0.70
2023-01-13T15:53:59.204Z,0.73
2023-01-13T15:56:49.356Z,0.80
2023-01-13T16:03:18.892Z,0.80
2023-01-13T16:09:53.956Z,1.13
2023-01-13T16:12:41.486Z,1.30
2023-01-13T16:19:16.993Z,1.43
2023-01-13T16:22:32.352Z,1.40
2023-01-13T16:25:21.192Z,2.83
2023-01-13T16:28:16.199Z,1.80
2023-01-13T16:31:16.089Z,1.53
2023-01-13T16:34:04.031Z,2.17
2023-01-13T16:36:52.008Z,2.23
2023-01-13T16:39:39.184Z,1.80
2023-01-13T16:42:26.632Z,1.53
2023-01-13T16:45:13.896Z,1.50
2023-01-13T16:48:01.903Z,1.73
2023-01-13T16:50:49.378Z,1.30
2023-01-13T16:53:36.815Z,1.47
2023-01-13T16:56:24.263Z,1.33
2023-01-13T16:59:16.051Z,1.27
2023-01-13T17:02:05.947Z,0.93
2023-01-13T17:04:53.936Z,1.17
2023-01-13T17:07:44.840Z,3.63
2023-01-13T17:10:32.793Z,2.83
2023-01-13T17:13:20.952Z,1.70
2023-01-13T17:16:15.144Z,1.73
2023-01-13T17:19:03.156Z,1.67
2023-01-13T17:21:53.858Z,1.20
2023-01-13T17:24:41.299Z,1.40
2023-01-13T17:27:28.699Z,1.17
2023-01-13T17:30:16.625Z,1.57
2023-01-13T17:33:04.038Z,1.10
2023-01-13T17:35:51.426Z,1.03
2023-01-13T17:38:38.857Z,1.17
2023-01-13T17:41:26.514Z,1.10
2023-01-13T17:44:15.413Z,1.30
2023-01-13T17:47:02.991Z,1.40
2023-01-13T17:49:50.466Z,1.60
2023-01-13T17:52:37.707Z,1.40
2023-01-13T17:55:25.565Z,1.10
2023-01-13T17:58:12.996Z,1.00
2023-01-13T18:01:00.454Z,1.33
2023-01-13T18:03:48.259Z,1.43
2023-01-13T18:06:35.727Z,0.80
2023-01-13T18:09:23.968Z,0.90
2023-01-13T18:12:11.542Z,0.67
2023-01-13T18:14:58.922Z,0.90
2023-01-13T18:17:47.335Z,0.80
2023-01-13T18:20:53.576Z,1.03
2023-01-13T18:23:59.649Z,1.13
2023-01-13T18:27:05.636Z,0.83
2023-01-13T18:29:53.801Z,1.00
2023-01-13T18:32:41.499Z,0.70
2023-01-13T18:35:30.112Z,0.87
2023-01-13T18:38:24.650Z,0.93
2023-01-13T18:41:30.939Z,1.30
2023-01-13T18:44:18.335Z,0.90
2023-01-13T18:47:05.872Z,1.03
2023-01-13T18:49:53.292Z,0.90
2023-01-13T18:52:41.765Z,0.90
2023-01-13T18:55:29.208Z,0.80
2023-01-13T18:58:16.660Z,0.90
2023-01-13T19:01:05.898Z,0.83
2023-01-13T19:04:00.731Z,0.80
2023-01-13T19:06:51.878Z,0.60
2023-01-13T19:09:39.763Z,1.27
2023-01-13T19:12:27.504Z,0.70
2023-01-13T19:15:14.938Z,0.90
2023-01-13T19:18:02.363Z,1.03
2023-01-13T19:20:49.636Z,0.70
2023-01-13T19:23:37.403Z,0.77
2023-01-13T19:26:24.864Z,1.00
2023-01-13T19:29:12.276Z,0.83
2023-01-13T19:31:59.756Z,1.03
2023-01-13T19:34:49.164Z,0.90
2023-01-13T19:37:37.303Z,0.80
2023-01-13T19:40:24.771Z,0.73
2023-01-13T19:43:31.518Z,0.90
2023-01-13T19:46:18.972Z,0.90
2023-01-13T19:49:06.445Z,1.00
2023-01-13T19:51:53.810Z,1.10
2023-01-13T19:54:41.814Z,1.00
2023-01-13T19:57:29.352Z,1.10
2023-01-13T20:00:20.597Z,1.20
2023-01-13T20:03:11.133Z,1.73
2023-01-13T20:06:07.063Z,1.00
2023-01-13T20:08:55.036Z,1.00
2023-01-13T20:11:42.419Z,0.70
2023-01-13T20:14:30.315Z,1.00
2023-01-13T20:17:19.370Z,1.20
2023-01-13T20:20:07.077Z,0.80
2023-01-13T20:22:54.255Z,1.17
2023-01-13T20:25:43.228Z,0.97
2023-01-13T20:28:30.660Z,0.93
2023-01-13T20:31:18.170Z,0.77
2023-01-13T20:34:05.810Z,2.00
2023-01-13T20:36:53.737Z,0.90
2023-01-13T20:39:44.868Z,1.00
2023-01-13T20:42:40.008Z,0.77
2023-01-13T20:45:27.518Z,0.90
2023-01-13T20:48:15.135Z,1.30
2023-01-13T20:51:02.551Z,0.90
2023-01-13T20:53:49.961Z,0.80
2023-01-13T20:56:37.991Z,0.67
2023-01-13T20:59:25.366Z,0.50
2023-01-13T21:02:14.041Z,1.00
2023-01-13T21:05:01.259Z,0.63
2023-01-13T21:07:48.975Z,0.77
2023-01-13T21:10:36.156Z,0.67
2023-01-13T21:13:42.109Z,0.60
2023-01-13T21:16:30.104Z,0.90
2023-01-13T21:19:18.101Z,0.60
2023-01-13T21:22:05.412Z,0.87
2023-01-13T21:24:53.088Z,0.90
2023-01-13T21:27:40.323Z,0.80
2023-01-13T21:30:28.127Z,0.73
2023-01-13T21:33:16.044Z,0.97
2023-01-13T21:36:07.415Z,0.80
2023-01-13T21:38:55.673Z,0.80
2023-01-13T21:42:02.022Z,0.70
2023-01-13T21:45:08.440Z,0.80
2023-01-13T21:47:56.154Z,0.67
2023-01-13T21:50:43.673Z,0.70
2023-01-13T21:53:31.579Z,0.73
2023-01-13T21:56:18.967Z,0.77
2023-01-13T21:59:06.368Z,1.10
2023-01-13T22:02:23.787Z,0.67
2023-01-13T22:05:12.978Z,0.80
2023-01-13T22:08:01.074Z,0.77
2023-01-13T22:10:57.825Z,0.80
2023-01-13T22:14:04.969Z,0.80
2023-01-13T22:16:54.058Z,1.00
2023-01-13T22:19:42.341Z,0.60
2023-01-13T22:22:34.946Z,0.87
2023-01-13T22:25:23.034Z,0.60
2023-01-13T22:28:13.758Z,0.60
2023-01-13T22:31:02.113Z,0.80
2023-01-13T22:33:49.297Z,0.93
2023-01-13T22:36:36.686Z,0.60
2023-01-13T22:39:24.638Z,0.80
2023-01-13T22:42:12.626Z,0.90
2023-01-13T22:45:00.647Z,0.90
2023-01-13T22:47:49.569Z,0.80
2023-01-13T22:50:36.977Z,1.10
2023-01-13T22:53:24.214Z,1.10
2023-01-13T22:56:17.068Z,1.33
2023-01-13T22:59:05.579Z,0.80
2023-01-13T23:01:53.431Z,1.10
2023-01-13T23:04:41.300Z,1.00
2023-01-13T23:07:28.792Z,0.80
2023-01-13T23:10:16.370Z,0.80
2023-01-13T23:13:03.793Z,0.83
2023-01-13T23:15:51.677Z,0.90
2023-01-13T23:18:42.458Z,1.07
2023-01-13T23:21:31.803Z,0.80
2023-01-13T23:24:19.337Z,0.70
2023-01-13T23:27:07.305Z,0.90
2023-01-13T23:29:56.093Z,0.70
2023-01-13T23:32:43.616Z,0.80
2023-01-13T23:35:32.408Z,0.60
2023-01-13T23:38:19.792Z,0.60
2023-01-13T23:41:08.797Z,0.97
2023-01-13T23:43:57.582Z,0.90
2023-01-13T23:46:45.535Z,1.00
2023-01-13T23:49:32.726Z,0.83
2023-01-13T23:52:20.401Z,0.50
2023-01-13T23:55:07.925Z,0.90
2023-01-13T23:57:55.909Z,0.67
